Accueil
METAR-TAF:

METAR-TAF

Aéroports :

Aéroport de Shoreham

Brighton, Angleterre

latitude: 50-50N, longitude: 000-17W, altitude: 2 m

Observation

Le bulletin a été fait il y a 9 heures et 4 minutes, à 17:20 UTC
Vent 15 kt de ouest/sud-ouest
Température 19°C
Humidité 78%
Pression 1021 hPa
Visibilité 10 km ou plus
Quelques nuages à une hauteur de 1300 ft
Nuages fragmentés à une hauteur de 2500 ft

METAR: EGKA 181720Z 24015KT 9999 FEW013 BKN025 19/15 Q1021

Heure: 03:24 (02:24 UTC)

Prévision

Le bulletin a été fait il y a 12 heures et 28 minutes, à 13:56 UTC
Prévision valable du 18 à 15 UTC au 18 à 19 UTC
Vent 13 kt de ouest/sud-ouest
Visibilité 10 km ou plus
Nuages épars à une hauteur de 3000 ft
Probabilité 30% :
Temporairement
du 18 à 15 UTC au 18 à 19 UTC
Visibilité: 6000 m
Nuages fragmentés à une hauteur de 1400 ft
faible bruine

TAF: EGKA 181356Z 1815/1819 24013KT 9999 SCT030 PROB30 TEMPO 1815/1819 6000 -DZ BKN014

Observations et prévisions météorologiques de plus de 4000 aéroports (messages METAR et TAF).

Les stations disponibles sont représentées par des disques jaunes et rouges sur la carte.

Passer la souris dessus pour voir le nom de la station.

Cliquer dessus pour voir les observations et prévisions météorologiques.

Pour changer de carte: cliquez sur les boutons verts avec une croix noire pour zoomer, sur le bouton vert avec un tiret pour effectuer un zoom arrière, ou sur les flèches vertes pour les cartes adjacentes.


METAR-TAF: